Time;durP1;ratioP1;P1;durP2;ratioP2;P2;SDS_P1;SDS_P2;PMS_P1;PMS_P2;Temp;Humidity;BMP_temperature;BMP_pressure;BME280_temperature;BME280_humidity;BME280_pressure;Samples;Min_cycle;Max_cycle;Signal;HPM_P1;HPM_P2
2022/12/11 00:01:10;;;;;;;106.05;31.13;;;0.10;99.90;;;;;;5051221;28;20101;-45
2022/12/11 00:03:37;;;;;;;96.05;29.92;;;0.10;99.90;;;;;;5070442;28;20045;-45
2022/12/11 00:06:05;;;;;;;86.95;28.65;;;0.10;99.90;;;;;;5053385;28;20053;-45
2022/12/11 00:08:32;;;;;;;103.88;31.00;;;0.10;99.90;;;;;;5052249;28;20107;-44
2022/12/11 00:10:59;;;;;;;111.15;30.05;;;0.10;99.90;;;;;;5067561;28;20052;-48
2022/12/11 00:13:26;;;;;;;108.55;30.92;;;0.10;99.90;;;;;;5071823;28;20109;-46
2022/12/11 00:15:54;;;;;;;117.55;32.35;;;0.10;99.90;;;;;;5053021;28;20113;-44
2022/12/11 00:18:21;;;;;;;104.57;30.88;;;0.20;99.90;;;;;;5065494;28;20053;-47
2022/12/11 00:20:48;;;;;;;102.13;31.73;;;0.10;99.90;;;;;;5053688;28;20090;-44
2022/12/11 00:23:14;;;;;;;125.93;30.27;;;0.10;99.90;;;;;;5050923;28;20057;-46
2022/12/11 00:25:43;;;;;;;113.30;31.42;;;0.20;99.90;;;;;;5068097;28;20045;-46
2022/12/11 00:28:10;;;;;;;99.28;31.02;;;0.10;99.90;;;;;;5052814;28;20119;-46
2022/12/11 00:30:39;;;;;;;124.07;30.45;;;0.10;99.90;;;;;;5051971;28;20103;-47
2022/12/11 00:33:07;;;;;;;112.82;30.65;;;0.20;99.90;;;;;;5054341;28;20052;-44
2022/12/11 00:35:34;;;;;;;104.63;28.77;;;0.20;99.90;;;;;;5068345;28;20052;-44
2022/12/11 00:38:01;;;;;;;98.82;29.60;;;0.20;99.90;;;;;;5067511;28;20048;-45
2022/12/11 00:40:28;;;;;;;123.55;31.23;;;0.30;99.90;;;;;;5067860;28;20101;-48
2022/12/11 00:42:54;;;;;;;102.97;29.77;;;0.20;99.90;;;;;;5069212;28;20133;-45
2022/12/11 00:45:21;;;;;;;105.38;27.77;;;0.20;99.90;;;;;;5054384;28;20056;-48
2022/12/11 00:47:48;;;;;;;104.15;29.65;;;0.20;99.90;;;;;;5070107;28;20052;-46
2022/12/11 00:50:16;;;;;;;97.45;29.10;;;0.20;99.90;;;;;;5068963;28;20053;-43
2022/12/11 00:52:43;;;;;;;103.20;29.73;;;0.20;99.90;;;;;;5069413;28;20041;-43
2022/12/11 00:55:10;;;;;;;114.07;30.80;;;0.30;99.90;;;;;;5052380;28;20049;-44
2022/12/11 00:57:37;;;;;;;108.20;29.90;;;0.30;99.90;;;;;;5071771;28;20132;-46
2022/12/11 01:00:05;;;;;;;112.40;29.38;;;0.30;99.90;;;;;;5070540;28;20060;-46
2022/12/11 01:02:33;;;;;;;101.32;28.95;;;0.30;99.90;;;;;;5071295;28;20048;-46
2022/12/11 01:04:59;;;;;;;101.93;28.73;;;0.30;99.90;;;;;;5070715;28;20114;-46
2022/12/11 01:07:27;;;;;;;103.28;30.65;;;0.30;99.90;;;;;;5070533;28;20122;-44
2022/12/11 01:12:35;;;;;;;110.20;28.77;;;0.40;99.90;;;;;;5042448;28;20049;-45
2022/12/11 01:15:02;;;;;;;95.78;29.77;;;0.40;99.90;;;;;;5071622;28;20459;-46
2022/12/11 01:17:29;;;;;;;97.47;30.88;;;0.40;99.90;;;;;;5073291;28;20124;-44
2022/12/11 01:19:56;;;;;;;118.50;29.80;;;0.40;99.90;;;;;;5074252;28;20087;-46
2022/12/11 01:22:23;;;;;;;109.80;29.65;;;0.40;99.90;;;;;;5072113;28;20048;-45
2022/12/11 01:24:51;;;;;;;100.18;29.35;;;0.40;99.90;;;;;;5074724;28;20045;-43
2022/12/11 01:27:18;;;;;;;110.80;30.27;;;0.30;99.90;;;;;;5073086;28;20094;-45
2022/12/11 01:29:44;;;;;;;117.55;30.77;;;0.40;99.90;;;;;;5053437;28;20048;-44
2022/12/11 01:32:11;;;;;;;101.43;29.17;;;0.40;99.90;;;;;;5055472;28;20049;-42
2022/12/11 01:34:38;;;;;;;109.25;30.17;;;0.40;99.90;;;;;;5055515;28;20439;-43
2022/12/11 01:37:05;;;;;;;102.43;29.60;;;0.40;99.90;;;;;;5073528;28;20074;-42
2022/12/11 01:39:32;;;;;;;107.18;30.25;;;0.50;99.90;;;;;;5072223;28;20094;-40
2022/12/11 01:42:00;;;;;;;115.20;28.77;;;0.40;99.90;;;;;;5074164;28;20049;-45
2022/12/11 01:45:04;;;;;;;107.65;28.60;;;0.50;99.90;;;;;;5070199;28;20126;-41
2022/12/11 01:47:31;;;;;;;106.72;29.00;;;0.50;99.90;;;;;;5063048;28;20056;-43
2022/12/11 01:49:58;;;;;;;86.07;26.63;;;0.40;99.90;;;;;;5070735;28;20045;-42
2022/12/11 01:52:25;;;;;;;95.10;28.10;;;0.50;99.90;;;;;;5070954;28;20101;-46
2022/12/11 01:54:52;;;;;;;95.72;26.83;;;0.50;99.90;;;;;;5074231;28;20098;-43
2022/12/11 01:57:20;;;;;;;101.53;28.50;;;0.50;99.90;;;;;;5071349;28;20056;-43
2022/12/11 01:59:47;;;;;;;89.78;28.30;;;0.50;99.90;;;;;;5062585;28;20103;-38
2022/12/11 02:02:17;;;;;;;93.72;27.63;;;0.50;99.90;;;;;;5069542;28;20155;-47
2022/12/11 02:04:44;;;;;;;97.85;27.73;;;0.50;99.90;;;;;;5072900;28;20060;-46
2022/12/11 02:07:11;;;;;;;106.00;28.63;;;0.50;99.90;;;;;;5073442;28;20052;-42
2022/12/11 02:09:38;;;;;;;94.07;28.88;;;0.60;99.90;;;;;;5073697;28;20045;-45
2022/12/11 02:12:07;;;;;;;102.45;29.23;;;0.50;99.90;;;;;;5053724;28;20136;-40
2022/12/11 02:14:38;;;;;;;78.75;26.35;;;0.50;99.90;;;;;;5072349;28;20052;-45
2022/12/11 02:17:07;;;;;;;83.47;28.00;;;0.60;99.90;;;;;;5055265;28;20044;-44
2022/12/11 02:19:51;;;;;;;88.18;27.15;;;0.60;99.90;;;;;;5056449;28;20579;-44
2022/12/11 02:22:38;;;;;;;90.30;28.52;;;0.60;99.90;;;;;;5071201;28;20052;-44
2022/12/11 02:25:09;;;;;;;82.68;25.85;;;0.60;99.90;;;;;;5072165;28;20044;-44
2022/12/11 02:27:36;;;;;;;87.22;26.13;;;0.60;99.90;;;;;;5070443;28;20052;-43
2022/12/11 02:30:06;;;;;;;100.93;27.67;;;0.60;99.90;;;;;;5072376;28;20057;-44
2022/12/11 02:32:35;;;;;;;93.18;27.13;;;0.60;99.90;;;;;;5053490;28;20118;-43
2022/12/11 02:35:07;;;;;;;78.10;27.48;;;0.60;99.90;;;;;;5072096;28;20066;-42
2022/12/11 02:37:35;;;;;;;83.07;26.13;;;0.60;99.90;;;;;;5056020;28;20048;-43
2022/12/11 02:40:02;;;;;;;92.05;27.08;;;0.60;99.90;;;;;;5072549;28;20435;-44
2022/12/11 02:42:29;;;;;;;98.68;28.70;;;0.60;99.90;;;;;;5054322;28;20052;-41
2022/12/11 02:44:56;;;;;;;88.57;26.38;;;0.60;99.90;;;;;;5073278;28;20066;-44
2022/12/11 02:47:25;;;;;;;95.53;26.73;;;0.70;99.90;;;;;;5070716;28;20049;-47
2022/12/11 02:49:51;;;;;;;90.78;26.00;;;0.70;99.90;;;;;;5073383;28;20044;-47
2022/12/11 02:52:20;;;;;;;79.78;26.80;;;0.70;99.90;;;;;;5053369;28;20064;-45
2022/12/11 02:54:47;;;;;;;93.60;27.48;;;0.60;99.90;;;;;;5071603;28;20044;-41
2022/12/11 02:57:15;;;;;;;103.00;28.23;;;0.60;99.90;;;;;;5072216;28;20068;-44
2022/12/11 02:59:43;;;;;;;80.38;25.33;;;0.70;99.90;;;;;;5070585;28;20044;-45
2022/12/11 03:02:10;;;;;;;86.75;27.33;;;0.70;99.90;;;;;;5054430;28;20443;-40
2022/12/11 03:04:38;;;;;;;90.38;26.40;;;0.80;99.90;;;;;;5072107;28;20106;-43
2022/12/11 03:07:10;;;;;;;98.72;27.92;;;0.80;99.90;;;;;;5053405;28;20074;-42
2022/12/11 03:09:38;;;;;;;103.00;27.33;;;0.80;99.90;;;;;;5070547;28;20052;-43
2022/12/11 03:12:05;;;;;;;94.28;27.48;;;0.70;99.90;;;;;;5071760;28;20044;-43
2022/12/11 03:14:32;;;;;;;93.53;26.63;;;0.70;99.90;;;;;;5053835;28;20049;-43
2022/12/11 03:17:02;;;;;;;92.07;26.73;;;0.70;99.90;;;;;;5073597;28;20109;-43
2022/12/11 03:19:31;;;;;;;97.57;28.70;;;0.70;99.90;;;;;;5071138;28;20052;-42
2022/12/11 03:22:02;;;;;;;93.15;27.75;;;0.70;99.90;;;;;;5071363;28;20466;-43
2022/12/11 03:24:30;;;;;;;88.13;26.77;;;0.70;99.90;;;;;;5071508;28;20064;-43
2022/12/11 03:26:59;;;;;;;96.05;27.85;;;0.70;99.90;;;;;;5067251;28;20053;-44
2022/12/11 03:29:29;;;;;;;100.20;28.63;;;0.80;99.90;;;;;;5052750;28;20096;-46
2022/12/11 03:31:58;;;;;;;95.30;29.13;;;0.70;99.90;;;;;;5072232;28;20059;-43
2022/12/11 03:34:27;;;;;;;98.82;28.35;;;0.70;99.90;;;;;;5054204;28;20040;-40
2022/12/11 03:36:54;;;;;;;94.22;28.00;;;0.80;99.90;;;;;;5072401;28;20063;-47
2022/12/11 03:39:24;;;;;;;85.65;26.65;;;0.70;99.90;;;;;;5072752;28;20045;-44
2022/12/11 03:41:51;;;;;;;94.43;27.65;;;0.80;99.90;;;;;;5069403;28;20098;-40
2022/12/11 03:44:18;;;;;;;84.38;27.27;;;0.80;99.90;;;;;;5054088;28;20056;-45
2022/12/11 03:46:45;;;;;;;91.78;28.35;;;0.80;99.90;;;;;;5072683;28;20071;-44
2022/12/11 03:49:15;;;;;;;86.30;27.13;;;0.80;99.90;;;;;;5054773;28;20048;-43
2022/12/11 03:51:42;;;;;;;88.57;28.80;;;0.80;99.90;;;;;;5072607;28;20087;-42
2022/12/11 03:54:09;;;;;;;86.55;27.73;;;0.80;99.90;;;;;;5072411;28;20075;-47
2022/12/11 03:56:37;;;;;;;97.43;28.58;;;0.80;99.90;;;;;;5053389;28;20080;-39
2022/12/11 03:59:06;;;;;;;82.07;26.77;;;0.80;99.90;;;;;;5072443;28;20053;-43
2022/12/11 04:01:33;;;;;;;101.53;28.38;;;0.80;99.90;;;;;;5071669;28;20381;-47
2022/12/11 04:03:59;;;;;;;101.68;29.85;;;0.80;99.90;;;;;;5052672;28;20504;-45
2022/12/11 04:06:26;;;;;;;109.63;31.50;;;0.80;99.90;;;;;;5072559;28;20102;-43
2022/12/11 04:08:53;;;;;;;101.75;28.48;;;0.80;99.90;;;;;;5054392;28;20052;-44
2022/12/11 04:11:35;;;;;;;93.45;30.10;;;0.80;99.90;;;;;;5053589;28;20547;-43
2022/12/11 04:16:48;;;;;;;92.88;29.70;;;0.80;99.90;;;;;;5072297;28;20049;-44
2022/12/11 04:24:43;;;;;;;97.97;29.02;;;0.80;99.90;;;;;;5070284;28;20041;-41
2022/12/11 04:27:10;;;;;;;94.20;27.90;;;0.80;99.90;;;;;;5072767;28;20052;-44
2022/12/11 04:29:38;;;;;;;91.82;28.58;;;0.80;99.90;;;;;;5071738;28;20045;-43
2022/12/11 04:32:05;;;;;;;93.18;28.05;;;0.80;99.90;;;;;;5071355;28;20060;-44
2022/12/11 04:34:32;;;;;;;88.93;27.95;;;0.80;99.90;;;;;;5069148;28;20093;-43
2022/12/11 04:36:59;;;;;;;89.00;28.42;;;0.80;99.90;;;;;;5054355;28;20060;-47
2022/12/11 04:39:26;;;;;;;87.72;26.77;;;0.80;99.90;;;;;;5073357;28;20496;-45
2022/12/11 04:41:52;;;;;;;86.07;26.98;;;0.80;99.90;;;;;;5075236;28;20044;-43
2022/12/11 04:44:19;;;;;;;89.97;27.33;;;0.80;99.90;;;;;;5058535;28;20079;-41
2022/12/11 04:46:47;;;;;;;83.32;26.20;;;0.90;99.90;;;;;;5074888;28;20052;-45
2022/12/11 04:49:14;;;;;;;91.80;27.52;;;0.90;99.90;;;;;;5072550;28;20045;-44
2022/12/11 04:51:41;;;;;;;85.47;27.02;;;0.90;99.90;;;;;;5057173;28;20480;-44
2022/12/11 04:54:08;;;;;;;88.93;29.15;;;0.90;99.90;;;;;;5075845;28;20110;-45
2022/12/11 04:56:35;;;;;;;91.03;27.35;;;0.90;99.90;;;;;;5053077;28;20924;-43
2022/12/11 04:59:01;;;;;;;80.47;26.38;;;0.90;99.90;;;;;;5052829;28;20099;-44
2022/12/11 05:01:28;;;;;;;74.75;26.08;;;0.90;99.90;;;;;;5050970;28;20053;-44
2022/12/11 05:03:58;;;;;;;87.57;28.20;;;0.90;99.90;;;;;;5054490;28;20118;-44
2022/12/11 05:06:25;;;;;;;89.05;27.83;;;0.90;99.90;;;;;;5055549;28;20116;-44
2022/12/11 05:08:52;;;;;;;98.57;28.90;;;0.90;99.90;;;;;;5052194;28;20098;-47
2022/12/11 05:11:19;;;;;;;83.80;27.77;;;0.90;99.90;;;;;;5054047;28;20464;-44
2022/12/11 05:13:46;;;;;;;93.00;28.17;;;0.90;99.90;;;;;;5051811;28;20045;-42
2022/12/11 05:16:15;;;;;;;88.22;27.00;;;0.90;99.90;;;;;;5054821;28;20053;-43
2022/12/11 05:18:41;;;;;;;87.30;26.75;;;0.90;99.90;;;;;;5054121;28;20048;-43
2022/12/11 05:21:11;;;;;;;95.85;27.77;;;0.90;99.90;;;;;;5050997;28;20079;-44
2022/12/11 05:23:38;;;;;;;93.05;28.05;;;0.90;99.90;;;;;;5053492;28;20049;-43
2022/12/11 05:26:06;;;;;;;86.55;28.55;;;0.90;99.90;;;;;;5053636;28;20064;-44
2022/12/11 05:28:34;;;;;;;91.32;26.58;;;0.90;99.90;;;;;;5051628;28;20053;-44
2022/12/11 05:31:02;;;;;;;89.15;28.48;;;0.90;99.90;;;;;;5053600;28;20107;-42
2022/12/11 05:33:29;;;;;;;96.15;26.40;;;0.90;99.90;;;;;;5053732;28;20049;-44
2022/12/11 05:35:56;;;;;;;91.38;27.25;;;0.90;99.90;;;;;;5051961;28;20086;-43
2022/12/11 05:38:24;;;;;;;92.10;28.73;;;0.90;99.90;;;;;;5052323;28;20107;-40
2022/12/11 05:40:58;;;;;;;85.85;27.02;;;0.90;99.90;;;;;;5051395;28;20099;-42
2022/12/11 05:43:25;;;;;;;94.03;29.75;;;0.90;99.90;;;;;;5049737;28;20063;-41
2022/12/11 05:45:51;;;;;;;78.38;25.80;;;0.90;99.90;;;;;;5054092;28;20402;-44
2022/12/11 05:48:18;;;;;;;86.20;27.98;;;0.90;99.90;;;;;;5051670;28;20049;-45
2022/12/11 05:50:45;;;;;;;89.28;27.45;;;1.00;99.90;;;;;;5053091;28;20118;-46
2022/12/11 05:53:12;;;;;;;86.30;25.80;;;0.90;99.90;;;;;;5052625;28;20052;-44
2022/12/11 05:55:40;;;;;;;102.18;26.52;;;1.00;99.90;;;;;;5057885;28;20056;-43
2022/12/11 05:58:07;;;;;;;88.55;26.35;;;1.00;99.90;;;;;;5074397;28;20105;-44
2022/12/11 06:00:34;;;;;;;97.80;26.95;;;1.00;99.90;;;;;;5051296;28;20488;-47
2022/12/11 06:03:01;;;;;;;84.97;27.00;;;1.00;99.90;;;;;;5074428;28;20049;-44
2022/12/11 06:05:28;;;;;;;86.18;26.67;;;0.90;99.90;;;;;;5072725;28;20545;-42
2022/12/11 06:07:54;;;;;;;86.78;26.77;;;0.90;99.90;;;;;;5071015;28;20051;-43
2022/12/11 06:10:21;;;;;;;83.13;25.73;;;1.00;99.90;;;;;;5073742;28;20113;-43
2022/12/11 06:12:49;;;;;;;96.90;28.17;;;0.90;99.90;;;;;;5071699;28;20450;-45
2022/12/11 06:15:16;;;;;;;80.32;26.30;;;0.90;99.90;;;;;;5072929;28;20450;-45
2022/12/11 06:17:43;;;;;;;91.03;28.75;;;0.90;99.90;;;;;;5072695;28;20048;-38
2022/12/11 06:20:11;;;;;;;86.95;26.35;;;1.00;99.90;;;;;;5071996;28;20044;-44
2022/12/11 06:22:38;;;;;;;80.65;26.80;;;1.00;99.90;;;;;;5050723;28;20053;-44
2022/12/11 06:25:05;;;;;;;97.68;27.15;;;0.90;99.90;;;;;;5071638;28;20044;-43
2022/12/11 06:27:32;;;;;;;89.07;27.55;;;1.00;99.90;;;;;;5070815;28;20055;-42
2022/12/11 06:30:00;;;;;;;83.78;26.05;;;0.90;99.90;;;;;;5072766;28;20056;-42
2022/12/11 06:32:27;;;;;;;80.57;26.20;;;1.00;99.90;;;;;;5053933;28;20057;-43
2022/12/11 06:34:54;;;;;;;93.40;27.40;;;0.90;99.90;;;;;;5051057;28;20173;-44
2022/12/11 06:37:21;;;;;;;86.85;27.08;;;0.90;99.90;;;;;;5054340;28;20056;-44
2022/12/11 06:39:48;;;;;;;81.63;25.95;;;0.90;99.90;;;;;;5054501;28;20125;-41
2022/12/11 06:42:16;;;;;;;97.43;27.27;;;0.80;99.90;;;;;;5069981;28;20048;-43
2022/12/11 06:44:43;;;;;;;94.28;26.90;;;0.90;99.90;;;;;;5055940;28;20052;-43
2022/12/11 06:47:11;;;;;;;90.45;28.63;;;0.90;99.90;;;;;;5072157;28;20094;-42
2022/12/11 06:49:38;;;;;;;82.40;25.83;;;0.90;99.90;;;;;;5071673;28;20045;-43
2022/12/11 06:52:05;;;;;;;89.18;27.85;;;0.90;99.90;;;;;;5070110;28;20450;-43
2022/12/11 06:54:32;;;;;;;90.75;27.58;;;0.80;99.90;;;;;;5055262;28;20101;-43
2022/12/11 06:56:59;;;;;;;96.45;26.73;;;0.80;99.90;;;;;;5071014;28;20079;-42
2022/12/11 06:59:26;;;;;;;83.15;26.30;;;0.90;99.90;;;;;;5070889;28;20429;-42
2022/12/11 07:01:53;;;;;;;91.70;26.83;;;0.90;99.90;;;;;;5051199;28;20044;-45
2022/12/11 07:04:23;;;;;;;85.43;26.05;;;0.90;99.90;;;;;;5052616;28;20052;-43
2022/12/11 07:06:50;;;;;;;86.75;27.10;;;0.90;99.90;;;;;;5070549;28;20045;-41
2022/12/11 07:09:17;;;;;;;99.80;28.48;;;0.90;99.90;;;;;;5071019;28;20403;-44
2022/12/11 07:11:44;;;;;;;93.25;27.40;;;0.90;99.90;;;;;;5050311;28;20044;-43
2022/12/11 07:14:11;;;;;;;104.82;29.25;;;0.90;99.90;;;;;;5050136;28;20052;-42
2022/12/11 07:16:38;;;;;;;93.22;27.23;;;0.90;99.90;;;;;;5068852;28;20097;-44
2022/12/11 07:19:04;;;;;;;95.28;27.88;;;0.90;99.90;;;;;;5070049;28;20099;-44
2022/12/11 07:21:33;;;;;;;86.72;27.10;;;0.90;99.90;;;;;;5071659;28;20389;-40
2022/12/11 07:23:59;;;;;;;99.82;29.92;;;0.90;99.90;;;;;;5071481;28;20052;-44
2022/12/11 07:26:26;;;;;;;84.85;27.35;;;0.90;99.90;;;;;;5069289;28;20056;-43
2022/12/11 07:28:56;;;;;;;87.03;26.52;;;0.90;99.90;;;;;;5067543;28;20052;-45
2022/12/11 07:31:23;;;;;;;90.40;28.65;;;0.90;99.90;;;;;;5068880;28;20496;-42
2022/12/11 07:33:53;;;;;;;95.50;28.90;;;0.90;99.90;;;;;;5064119;28;20052;-45
2022/12/11 07:36:20;;;;;;;88.20;27.90;;;0.90;99.90;;;;;;5053419;28;20057;-40
2022/12/11 07:38:48;;;;;;;94.78;28.40;;;0.90;99.90;;;;;;5054845;28;20107;-43
2022/12/11 07:41:15;;;;;;;98.10;29.50;;;0.90;99.90;;;;;;5050452;28;20098;-43
2022/12/11 07:43:42;;;;;;;81.40;26.92;;;0.90;99.90;;;;;;5069685;28;20091;-45
2022/12/11 07:46:11;;;;;;;92.72;29.40;;;0.90;99.90;;;;;;5052110;28;20045;-47
2022/12/11 07:48:38;;;;;;;95.07;28.00;;;1.00;99.90;;;;;;5071953;28;20049;-39
2022/12/11 07:51:09;;;;;;;104.57;29.42;;;0.90;99.90;;;;;;5049997;28;20047;-44
2022/12/11 07:53:36;;;;;;;96.38;27.35;;;0.90;99.90;;;;;;5066713;28;20106;-43
2022/12/11 07:56:05;;;;;;;92.13;26.40;;;1.00;99.90;;;;;;5070534;28;20074;-43
2022/12/11 07:58:32;;;;;;;101.03;28.85;;;0.90;99.90;;;;;;5070170;28;20503;-40
2022/12/11 08:00:59;;;;;;;112.35;30.60;;;0.90;99.90;;;;;;5067450;28;20435;-38
2022/12/11 08:03:26;;;;;;;91.55;28.45;;;1.00;99.90;;;;;;5051417;28;20052;-45
2022/12/11 08:05:53;;;;;;;104.43;31.55;;;1.00;99.90;;;;;;5054324;28;20493;-39
2022/12/11 08:08:19;;;;;;;95.65;29.35;;;1.00;99.90;;;;;;5070142;28;20095;-45
2022/12/11 08:10:46;;;;;;;104.50;30.58;;;1.00;99.90;;;;;;5068330;28;20044;-41
2022/12/11 08:13:15;;;;;;;105.97;29.10;;;1.00;99.90;;;;;;5059116;28;20399;-40
2022/12/11 08:15:42;;;;;;;103.53;27.85;;;1.00;99.90;;;;;;5052440;28;20127;-40
2022/12/11 08:18:08;;;;;;;95.35;28.70;;;1.10;99.90;;;;;;5069728;28;20098;-44
2022/12/11 08:20:37;;;;;;;83.78;27.08;;;1.00;99.90;;;;;;5070402;28;20099;-45
2022/12/11 08:23:04;;;;;;;85.05;26.95;;;1.00;99.90;;;;;;5069374;28;20048;-43
2022/12/11 08:25:31;;;;;;;90.85;27.48;;;1.00;99.90;;;;;;5056485;28;20404;-43
2022/12/11 08:27:58;;;;;;;83.93;27.55;;;1.10;99.90;;;;;;5058320;28;20063;-44
2022/12/11 08:30:26;;;;;;;95.30;27.27;;;1.00;99.90;;;;;;5074234;28;20458;-43
2022/12/11 08:32:53;;;;;;;100.13;28.63;;;1.10;99.90;;;;;;5055818;28;20105;-44
2022/12/11 08:35:23;;;;;;;95.55;28.60;;;0.90;99.90;;;;;;5052685;28;20053;-43
2022/12/11 08:37:50;;;;;;;107.82;30.35;;;0.90;99.90;;;;;;5074115;28;20488;-45
2022/12/11 08:40:17;;;;;;;103.28;30.50;;;1.00;99.90;;;;;;5056139;28;20074;-41
2022/12/11 08:42:44;;;;;;;100.72;29.80;;;1.00;99.90;;;;;;5067712;28;20480;-43
2022/12/11 08:45:11;;;;;;;92.10;27.92;;;1.00;99.90;;;;;;5073820;28;20056;-37
2022/12/11 08:47:40;;;;;;;94.38;29.80;;;1.00;99.90;;;;;;5071368;28;20079;-44
2022/12/11 08:50:07;;;;;;;92.25;29.83;;;1.00;99.90;;;;;;5072405;28;20048;-44
2022/12/11 08:52:34;;;;;;;97.50;30.27;;;1.00;99.90;;;;;;5075573;28;20090;-42
2022/12/11 08:55:01;;;;;;;111.75;40.08;;;1.00;99.90;;;;;;5074392;28;20489;-43
2022/12/11 08:57:28;;;;;;;134.43;56.08;;;1.00;99.90;;;;;;5074720;28;20052;-43
2022/12/11 08:59:55;;;;;;;106.90;37.88;;;1.00;99.90;;;;;;5075989;28;20052;-42
2022/12/11 09:02:22;;;;;;;232.15;111.43;;;1.00;99.90;;;;;;5073195;28;20121;-44
2022/12/11 09:04:50;;;;;;;123.30;46.97;;;1.00;99.90;;;;;;5069273;28;20098;-42
2022/12/11 09:07:17;;;;;;;102.03;31.23;;;1.00;99.90;;;;;;5074442;28;20063;-41
2022/12/11 09:09:44;;;;;;;97.47;29.20;;;1.00;99.90;;;;;;5074045;28;20048;-43
2022/12/11 09:12:11;;;;;;;102.88;30.10;;;1.10;99.90;;;;;;5074460;28;20049;-46
2022/12/11 09:14:37;;;;;;;95.10;30.50;;;1.00;99.90;;;;;;5073683;28;20052;-44
2022/12/11 09:17:05;;;;;;;86.65;30.48;;;1.00;99.90;;;;;;5053462;28;20098;-45
2022/12/11 09:19:32;;;;;;;96.57;29.80;;;1.00;99.90;;;;;;5054585;28;20516;-43
2022/12/11 09:22:00;;;;;;;91.70;31.63;;;1.10;99.90;;;;;;5055406;28;20515;-47
2022/12/11 09:24:27;;;;;;;96.68;31.15;;;1.00;99.90;;;;;;5051039;28;20510;-41
2022/12/11 09:26:54;;;;;;;86.90;29.00;;;1.10;99.90;;;;;;5055469;28;20049;-44
2022/12/11 09:29:21;;;;;;;92.75;28.77;;;1.10;99.90;;;;;;5068358;28;20178;-45
2022/12/11 09:31:48;;;;;;;116.68;38.67;;;1.10;99.90;;;;;;5049763;28;20105;-43
2022/12/11 09:34:15;;;;;;;111.82;42.17;;;1.10;99.90;;;;;;5072015;28;20048;-39
2022/12/11 09:36:42;;;;;;;94.70;30.90;;;1.10;99.90;;;;;;5053664;28;20473;-42
2022/12/11 09:39:11;;;;;;;103.88;46.45;;;1.10;99.90;;;;;;5068612;28;20071;-42
2022/12/11 09:41:39;;;;;;;94.82;30.60;;;1.00;99.90;;;;;;5069487;28;20484;-45
2022/12/11 09:44:19;;;;;;;89.68;31.60;;;1.00;99.90;;;;;;5072447;28;20581;-40
2022/12/11 09:46:46;;;;;;;75.75;26.02;;;1.00;99.90;;;;;;5037674;28;20440;-39
2022/12/11 09:49:23;;;;;;;104.05;33.05;;;1.00;99.90;;;;;;5069706;28;20057;-43
2022/12/11 09:51:51;;;;;;;95.28;29.67;;;1.10;99.90;;;;;;5073077;28;20052;-43
2022/12/11 09:54:19;;;;;;;90.70;32.28;;;1.10;99.90;;;;;;5072071;28;20049;-41
2022/12/11 09:56:49;;;;;;;89.97;32.35;;;1.10;99.90;;;;;;5069916;28;20069;-43
2022/12/11 09:59:19;;;;;;;90.20;29.88;;;1.10;99.90;;;;;;5073195;28;20052;-43
2022/12/11 10:01:50;;;;;;;90.00;28.50;;;1.10;99.90;;;;;;5073984;28;20049;-44
2022/12/11 10:04:36;;;;;;;87.68;28.73;;;1.10;99.90;;;;;;5071206;28;20496;-45
2022/12/11 10:07:06;;;;;;;99.00;41.00;;;1.10;99.90;;;;;;5052816;28;20438;-45
2022/12/11 10:09:38;;;;;;;92.25;29.50;;;1.10;99.90;;;;;;5053038;28;20056;-45
2022/12/11 10:12:13;;;;;;;98.40;37.05;;;1.10;99.90;;;;;;5071599;28;20040;-42
2022/12/11 10:14:47;;;;;;;84.80;29.25;;;1.10;99.90;;;;;;5068097;28;20044;-42
2022/12/11 10:17:18;;;;;;;90.20;28.35;;;1.10;99.90;;;;;;5073796;28;20057;-44
2022/12/11 10:19:45;;;;;;;77.65;26.85;;;1.20;99.90;;;;;;5055783;28;20053;-42
2022/12/11 10:22:14;;;;;;;97.35;31.77;;;1.10;99.90;;;;;;5072625;28;20056;-46
2022/12/11 10:24:43;;;;;;;95.50;29.90;;;1.20;99.90;;;;;;5072516;28;20381;-46
2022/12/11 10:27:15;;;;;;;90.50;30.45;;;1.20;99.90;;;;;;5071103;28;20052;-45
2022/12/11 10:29:42;;;;;;;93.60;30.50;;;1.20;99.90;;;;;;5038208;28;20102;-44
2022/12/11 10:32:15;;;;;;;91.35;33.83;;;1.20;99.90;;;;;;5072532;28;20122;-41
2022/12/11 10:34:43;;;;;;;80.25;32.10;;;1.20;99.90;;;;;;5072079;28;20060;-43
2022/12/11 10:37:10;;;;;;;92.45;32.58;;;1.20;99.90;;;;;;5069734;28;20049;-44
2022/12/11 10:39:36;;;;;;;89.97;28.48;;;1.20;99.90;;;;;;5072159;28;20052;-46
2022/12/11 10:42:11;;;;;;;77.63;28.75;;;1.30;99.90;;;;;;5071935;28;20049;-48
2022/12/11 10:44:38;;;;;;;88.78;33.78;;;1.20;99.90;;;;;;5063420;28;20514;-46
2022/12/11 10:47:06;;;;;;;95.50;33.50;;;1.20;99.90;;;;;;5072883;28;20493;-43
2022/12/11 10:49:34;;;;;;;93.13;34.38;;;1.20;99.90;;;;;;5069302;28;20110;-46
2022/12/11 10:52:01;;;;;;;80.85;29.08;;;1.20;99.90;;;;;;5066295;28;20052;-44
2022/12/11 10:54:30;;;;;;;91.90;32.53;;;1.20;99.90;;;;;;5049640;28;20624;-45
2022/12/11 10:56:57;;;;;;;87.38;31.95;;;1.20;99.90;;;;;;5071987;28;20053;-47
2022/12/11 10:59:31;;;;;;;88.88;31.60;;;1.20;99.90;;;;;;5050972;28;20106;-44
2022/12/11 11:01:57;;;;;;;82.20;28.52;;;1.30;99.90;;;;;;5066196;28;20049;-42
2022/12/11 11:04:28;;;;;;;79.95;28.88;;;1.30;99.90;;;;;;5070433;28;20489;-48
2022/12/11 11:07:02;;;;;;;93.35;31.55;;;1.30;99.90;;;;;;5053551;28;20484;-42
2022/12/11 11:09:30;;;;;;;96.88;30.83;;;1.30;99.90;;;;;;5053847;28;20058;-49
2022/12/11 11:11:57;;;;;;;86.55;29.60;;;1.30;99.90;;;;;;5071337;28;20049;-49
2022/12/11 11:14:25;;;;;;;93.70;34.85;;;1.30;99.90;;;;;;5069826;28;20094;-46
2022/12/11 11:16:54;;;;;;;99.00;33.20;;;1.30;99.90;;;;;;5068125;28;20044;-46
2022/12/11 11:19:23;;;;;;;92.82;31.85;;;1.30;99.90;;;;;;5051860;28;20480;-47
2022/12/11 11:21:52;;;;;;;102.00;29.52;;;1.30;99.90;;;;;;5066627;28;20404;-48
2022/12/11 11:24:26;;;;;;;82.85;29.63;;;1.30;99.90;;;;;;5070237;28;20106;-47
2022/12/11 11:26:53;;;;;;;110.22;41.60;;;1.30;99.90;;;;;;5051487;28;20048;-46
2022/12/11 11:29:26;;;;;;;95.32;34.83;;;1.40;99.90;;;;;;5068673;28;20474;-42
2022/12/11 11:31:53;;;;;;;103.95;37.80;;;1.40;99.90;;;;;;5054514;28;20076;-46
2022/12/11 11:34:21;;;;;;;126.03;51.50;;;1.40;99.90;;;;;;5062330;28;20098;-45
2022/12/11 11:36:56;;;;;;;94.25;33.88;;;1.40;99.90;;;;;;5072857;28;20056;-46
2022/12/11 11:39:26;;;;;;;91.65;29.00;;;1.40;99.90;;;;;;5071715;28;20084;-43
2022/12/11 11:41:56;;;;;;;94.78;29.88;;;1.40;99.90;;;;;;5072692;28;20102;-45
2022/12/11 11:44:28;;;;;;;85.00;30.42;;;1.40;99.90;;;;;;5047323;28;20095;-46
2022/12/11 11:46:57;;;;;;;87.40;28.63;;;1.40;99.90;;;;;;5053882;28;20490;-41
2022/12/11 11:49:26;;;;;;;84.55;27.83;;;1.40;99.90;;;;;;5072301;28;20047;-44
2022/12/11 11:51:55;;;;;;;81.50;28.13;;;1.40;99.90;;;;;;5065955;28;20049;-43
2022/12/11 11:54:29;;;;;;;86.53;28.38;;;1.40;99.90;;;;;;5054232;28;20052;-45
2022/12/11 11:56:56;;;;;;;87.05;29.15;;;1.40;99.90;;;;;;5069943;28;20053;-45
2022/12/11 11:59:27;;;;;;;86.47;29.65;;;1.40;99.90;;;;;;5071223;28;20136;-41
2022/12/11 12:01:56;;;;;;;91.18;29.50;;;1.40;99.90;;;;;;5070600;28;20048;-42
2022/12/11 12:04:23;;;;;;;96.65;30.95;;;1.40;99.90;;;;;;5070483;28;20093;-43
2022/12/11 12:06:59;;;;;;;92.63;31.83;;;1.40;99.90;;;;;;5062302;28;20496;-39
2022/12/11 12:09:33;;;;;;;84.63;31.48;;;1.40;99.90;;;;;;5066649;28;20129;-42
2022/12/11 12:12:11;;;;;;;81.32;29.75;;;1.40;99.90;;;;;;5070165;28;20079;-42
2022/12/11 12:14:47;;;;;;;85.85;32.53;;;1.50;99.90;;;;;;5070140;28;20041;-43
2022/12/11 12:17:18;;;;;;;79.97;28.83;;;1.40;99.90;;;;;;5067099;28;20568;-44
2022/12/11 12:19:50;;;;;;;97.50;34.90;;;1.50;99.90;;;;;;5067586;28;20447;-43
2022/12/11 12:22:33;;;;;;;88.00;32.92;;;1.40;99.90;;;;;;5067333;28;20396;-39
2022/12/11 12:25:06;;;;;;;96.80;39.05;;;1.50;99.90;;;;;;5047878;28;20102;-41
2022/12/11 12:27:36;;;;;;;95.72;35.17;;;1.50;99.90;;;;;;5069314;28;20053;-43
2022/12/11 12:30:05;;;;;;;97.43;33.92;;;1.50;99.90;;;;;;5070430;28;20083;-44
2022/12/11 12:32:37;;;;;;;87.50;32.45;;;1.50;99.90;;;;;;5071305;28;20496;-44
2022/12/11 12:35:09;;;;;;;96.70;33.42;;;1.50;99.90;;;;;;5069856;28;20454;-42
2022/12/11 12:37:46;;;;;;;96.55;35.03;;;1.50;99.90;;;;;;5054639;28;20114;-42
2022/12/11 12:40:17;;;;;;;93.28;34.40;;;1.50;99.90;;;;;;5072106;28;20052;-45
2022/12/11 12:42:47;;;;;;;99.00;35.00;;;1.50;99.90;;;;;;5070323;28;20056;-44
2022/12/11 12:45:22;;;;;;;91.90;33.50;;;1.50;99.90;;;;;;5071111;28;20057;-43
2022/12/11 12:47:49;;;;;;;95.20;33.30;;;1.50;99.90;;;;;;5052079;28;20094;-42
2022/12/11 12:50:17;;;;;;;90.43;34.10;;;1.50;99.90;;;;;;5054249;28;20053;-44